Time;durP1;ratioP1;P1;durP2;ratioP2;P2;SDS_P1;SDS_P2;PMS_P1;PMS_P2;Temp;Humidity;BMP_temperature;BMP_pressure;BME280_temperature;BME280_humidity;BME280_pressure;Samples;Min_cycle;Max_cycle;Signal;HPM_P1;HPM_P2
2020/11/14 01:55:30;;;;;;;;;;;;;;;;;;;;;
2020/11/14 01:57:31;;;;;;;;;;;;;;;;;;;;;
2020/11/14 02:31:27;;;;;;;;;;;;;;;;;;;;;
2020/11/14 09:01:24;;;;;;;40.3;28;;;;;;;9.05;70.80957;99344.2;;;;
2020/11/14 09:05:24;;;;;;;36.1;27.3;;;;;;;9.02;70.27148;99339.67;;;;
2020/11/14 09:09:24;;;;;;;36.1;27.3;;;;;;;9.06;70.95313;99342.09;;;;
2020/11/14 09:39:23;;;;;;;32.8;22.7;;;;;;;8.7;72.08984;99322.03;;;;
2020/11/14 09:52:10;;;;;;;;;;;;;;;22.30;34.70;;;;;
2020/11/14 09:53:20;;;;;;;;;;;;;;;;;;;;;
2020/11/14 09:53:52;;;;;;;;;;;;;;;;;;;;;
2020/11/14 09:54:31;;;;;;;41.1;32.6;;;;;;;8.95;73.57129;99319.39;;;;
2020/11/14 09:57:37;;;;;;;;;;;;;;;;;;;;;
2020/11/14 09:57:52;;;;;;;;;;;;;;;;;;;;;
2020/11/14 09:58:23;;;;;;;41.1;32.6;;;;;;;8.98;72.03027;99319.87;;;;
2020/11/14 09:59:23;;;;;;;;;;;;;;;;;;;;;
2020/11/14 11:34:33;;;;;;;;;;;;;;;11.22;65.37598;99300.31;;;;
2020/11/14 11:35:33;;;;;;;;;;;;;;;11.17;65.40332;99293.13;;;;
2020/11/14 11:36:33;;;;;;;;;;;;;;;11.15;65.54688;99286.39;;;;
2020/11/14 11:37:33;;;;;;;;;;;;;;;11.15;66.47754;99287.2;;;;
2020/11/14 11:38:33;;;;;;;;;;;;;;;11.17;65.25488;99289.63;;;;
2020/11/14 11:39:33;;;;;;;;;;;;;;;11.21;66.1123;99283.32;;;;
2020/11/14 11:40:33;;;;;;;;;;;;;;;11.21;65.35254;99296.03;;;;
2020/11/14 11:41:33;;;;;;;;;;;;;;;11.2;66.29297;99295.23;;;;
2020/11/14 11:41:57;;;;;;;41.9;32.9;;;;;;;;;;;;;
2020/11/14 11:42:33;;;;;;;;;;;;;;;11.19;66.82227;99287.42;;;;
2020/11/14 11:43:33;;;;;;;;;;;;;;;11.18;66.16504;99296.59;;;;
2020/11/14 11:44:33;;;;;;;;;;;;;;;11.15;66.13672;99294.49;;;;
2020/11/14 11:45:33;;;;;;;;;;;;;;;11.14;66.48633;99290.21;;;;
2020/11/14 11:46:33;;;;;;;;;;;;;;;11.14;67.81348;99293.72;;;;
2020/11/14 11:47:33;;;;;;;;;;;;;;;10.98;67.13184;99276.95;;;;
2020/11/14 11:48:33;;;;;;;;;;;;;;;11.04;66.40527;99302.73;;;;
2020/11/14 11:49:33;;;;;;;;;;;;;;;11.01;65.68652;99292.54;;;;
2020/11/14 11:50:33;;;;;;;;;;;;;;;11.01;66.06055;99295.23;;;;
2020/11/14 11:51:33;;;;;;;;;;;;;;;10.97;66.34863;99290.71;;;;
2020/11/14 11:51:56;;;;;;;48.3;37.3;;;;;;;;;;;;;
2020/11/14 11:52:33;;;;;;;;;;;;;;;10.98;67.12012;99287.73;;;;
2020/11/14 11:53:33;;;;;;;;;;;;;;;11.01;66.38965;99292.54;;;;
2020/11/14 11:54:33;;;;;;;;;;;;;;;11.05;66.22461;99292.76;;;;
2020/11/14 11:55:33;;;;;;;;;;;;;;;11.02;65.99414;99288.76;;;;
2020/11/14 11:56:33;;;;;;;;;;;;;;;11.02;66.58203;99287.95;;;;
2020/11/14 11:57:33;;;;;;;;;;;;;;;11.03;67.20801;99295.77;;;;
2020/11/14 11:58:33;;;;;;;;;;;;;;;11.02;67.56934;99288.76;;;;
2020/11/14 11:59:33;;;;;;;;;;;;;;;11.04;67.02637;99288.45;;;;
2020/11/14 12:00:33;;;;;;;;;;;;;;;11.07;68.16602;99291.36;;;;
2020/11/14 12:01:34;;;;;;;;;;;;;;;11.07;68.03027;99285.97;;;;
2020/11/14 12:02:33;;;;;;;;;;;;;;;11.09;67.16113;99289.19;;;;
2020/11/14 12:03:33;;;;;;;;;;;;;;;11.1;66.68652;99296.2;;;;
2020/11/14 12:04:33;;;;;;;;;;;;;;;11.05;66.37207;99288.17;;;;
2020/11/14 12:05:33;;;;;;;;;;;;;;;10.97;66.26953;99278.03;;;;
2020/11/14 13:21:43;;;;;;;26.7;22.2;;;;;;;;;;;;;
2020/11/14 14:54:32;;;;;;;;;;;;;;;9.45;71.49902;99297.06;;;;
2020/11/14 14:58:02;;;;;;;;;;;;;;;9.43;71.2041;99301.64;;;;
2020/11/14 15:00:02;;;;;;;;;;;;;;;9.41;70.91699;99301.41;;;;
2020/11/14 15:06:02;;;;;;;;;;;;;;;9.3;71.24023;99303.1;;;;
2020/11/14 15:08:02;;;;;;;;;;;;;;;9.26;71.32324;99302.05;;;;
2020/11/14 15:11:02;;;;;;;;;;;;;;;9.22;71.05859;99292.94;;;;
2020/11/14 15:16:02;;;;;;;;;;;;;;;9.17;72.08594;99292.99;;;;
2020/11/14 15:19:02;;;;;;;;;;;;;;;9.12;71.35742;99291.95;;;;
2020/11/14 16:10:50;;;;;;;;;;;;;;;8.63;74.65918;99248.89;;;;
2020/11/14 16:11:11;;;;;;;48.5;43.5;;;;;;;;;;;;;
2020/11/14 16:11:50;;;;;;;;;;;;;;;8.63;73.97363;99296.05;;;;
2020/11/14 16:12:50;;;;;;;;;;;;;;;8.62;73.81641;99293.36;;;;
2020/11/14 16:13:50;;;;;;;;;;;;;;;8.61;73.87109;99289.06;;;;
2020/11/14 16:14:50;;;;;;;;;;;;;;;8.61;73.84473;99286.67;;;;
2020/11/14 16:15:50;;;;;;;;;;;;;;;8.6;73.88965;99292.04;;;;
2020/11/14 16:16:50;;;;;;;;;;;;;;;8.59;74.21582;99296.61;;;;
2020/11/14 16:17:50;;;;;;;;;;;;;;;8.59;73.75391;99295.8;;;;
2020/11/14 16:18:50;;;;;;;;;;;;;;;8.59;73.76465;99303.86;;;;
2020/11/14 16:19:50;;;;;;;;;;;;;;;8.59;73.56055;99294.99;;;;
2020/11/14 16:20:50;;;;;;;;;;;;;;;8.6;73.33789;99293.11;;;;
2020/11/14 16:21:09;;;;;;;48;37;;;;;;;;;;;;;
2020/11/14 16:21:50;;;;;;;;;;;;;;;8.58;73.30566;99296.61;;;;
2020/11/14 16:23:21;;;;;;;;;;;;;;;8.59;73.20605;99258.31;;;;
2020/11/14 16:24:21;;;;;;;;;;;;;;;8.59;73.3252;99289.62;;;;
2020/11/14 16:25:21;;;;;;;;;;;;;;;8.57;73.44824;99292.3;;;;
2020/11/14 16:26:21;;;;;;;;;;;;;;;8.58;73.34473;99281.05;;;;
2020/11/14 16:27:21;;;;;;;;;;;;;;;8.57;73.3457;99288;;;;
2020/11/14 16:28:21;;;;;;;;;;;;;;;8.57;73.25586;99279.13;;;;
2020/11/14 16:29:21;;;;;;;;;;;;;;;8.56;73.16406;99281.05;;;;
2020/11/14 16:30:21;;;;;;;;;;;;;;;8.55;73.51172;99282.11;;;;
2020/11/14 16:31:07;;;;;;;43.9;37.1;;;;;;;;;;;;;
2020/11/14 16:31:25;;;;;;;;;;;;;;;8.54;73.54395;99283.19;;;;
2020/11/14 16:32:21;;;;;;;;;;;;;;;8.53;73.42871;99270.82;;;;
2020/11/14 16:33:21;;;;;;;;;;;;;;;8.52;73.36133;99272.73;;;;
2020/11/14 16:34:21;;;;;;;;;;;;;;;8.51;73.50391;99281.05;;;;
2020/11/14 16:35:23;;;;;;;;;;;;;;;8.52;73.49316;99282.94;;;;
2020/11/14 16:36:21;;;;;;;;;;;;;;;8.5;73.52637;99283.74;;;;
2020/11/14 16:37:21;;;;;;;;;;;;;;;8.49;73.80566;99284;;;;
2020/11/14 16:38:21;;;;;;;;;;;;;;;8.49;74.0166;99284.3;;;;
2020/11/14 16:39:21;;;;;;;;;;;;;;;8.45;74.17383;99276.24;;;;
2020/11/14 16:40:21;;;;;;;;;;;;;;;8.44;74.17871;99275.18;;;;
2020/11/14 16:41:07;;;;;;;54.6;43.3;;;;;;;;;;;;;
2020/11/14 16:41:22;;;;;;;;;;;;;;;8.42;74.11035;99277.06;;;;
2020/11/14 16:42:21;;;;;;;;;;;;;;;8.4;74.12793;99283.8;;;;
2020/11/14 16:43:21;;;;;;;;;;;;;;;8.41;73.96777;99278.69;;;;
2020/11/14 16:44:21;;;;;;;;;;;;;;;8.39;74.14941;99276.81;;;;
2020/11/14 16:45:21;;;;;;;;;;;;;;;8.4;74.05566;99271.73;;;;
2020/11/14 16:46:21;;;;;;;;;;;;;;;8.41;74.25977;99280.59;;;;
2020/11/14 16:47:21;;;;;;;;;;;;;;;8.39;74.85645;99282.18;;;;
2020/11/14 16:48:21;;;;;;;;;;;;;;;8.4;74.63965;99277.1;;;;
2020/11/14 16:49:21;;;;;;;;;;;;;;;8.4;74.34961;99280.59;;;;
2020/11/14 16:50:21;;;;;;;;;;;;;;;8.41;74.31641;99280.59;;;;
2020/11/14 16:51:08;;;;;;;55.2;45.1;;;;;;;;;;;;;
2020/11/14 16:51:21;;;;;;;;;;;;;;;8.39;74.18262;99282.18;;;;
2020/11/14 16:52:21;;;;;;;;;;;;;;;8.38;74.31445;99279.79;;;;
2020/11/14 16:53:22;;;;;;;;;;;;;;;8.37;74.2998;99277.37;;;;
2020/11/14 16:54:21;;;;;;;;;;;;;;;8.37;74.19922;99275.75;;;;
2020/11/14 16:55:21;;;;;;;;;;;;;;;8.34;74.35645;99281.12;;;;
2020/11/14 16:56:21;;;;;;;;;;;;;;;8.33;74.33887;99276.3;;;;
2020/11/14 16:57:21;;;;;;;;;;;;;;;8.3;74.49414;99272.03;;;;
2020/11/14 16:58:24;;;;;;;;;;;;;;;8.27;74.55762;99273.37;;;;
2020/11/14 16:59:21;;;;;;;;;;;;;;;8.26;74.38281;99265.02;;;;
2020/11/14 17:00:21;;;;;;;;;;;;;;;8.24;74.59473;99274.18;;;;
2020/11/14 17:01:02;;;;;;;63.5;47.9;;;;;;;;;;;;;
2020/11/14 17:01:21;;;;;;;;;;;;;;;8.23;74.63672;99262.89;;;;
2020/11/14 17:02:21;;;;;;;;;;;;;;;8.22;74.70117;99272.02;;;;
2020/11/14 17:03:21;;;;;;;;;;;;;;;8.19;74.81348;99273.92;;;;
2020/11/14 17:04:21;;;;;;;;;;;;;;;8.18;74.93066;99261.02;;;;
2020/11/14 17:05:21;;;;;;;;;;;;;;;8.18;74.95313;99267.5;;;;
2020/11/14 17:06:21;;;;;;;;;;;;;;;8.18;74.99609;99269.38;;;;
2020/11/14 17:07:21;;;;;;;;;;;;;;;8.15;75.00781;99277.42;;;;
2020/11/14 17:08:21;;;;;;;;;;;;;;;8.16;74.98047;99268.05;;;;
2020/11/14 17:09:21;;;;;;;;;;;;;;;8.13;75.07227;99266.17;;;;
2020/11/14 17:10:21;;;;;;;;;;;;;;;8.13;75.23438;99266.7;;;;
2020/11/14 17:11:00;;;;;;;67.9;46.7;;;;;;;;;;;;;
2020/11/14 17:11:21;;;;;;;;;;;;;;;8.14;75.08789;99269.38;;;;
2020/11/14 17:12:21;;;;;;;;;;;;;;;8.12;75.10254;99265.63;;;;
2020/11/14 17:13:21;;;;;;;;;;;;;;;8.1;75.32227;99273.16;;;;
2020/11/14 17:14:21;;;;;;;;;;;;;;;8.08;75.29785;99276.91;;;;
2020/11/14 17:15:22;;;;;;;;;;;;;;;7.91;75.18262;99273.72;;;;
2020/11/14 17:16:21;;;;;;;;;;;;;;;8.01;75.3877;99267.06;;;;
2020/11/14 17:17:21;;;;;;;;;;;;;;;7.96;75.18164;99283.94;;;;
2020/11/14 17:18:21;;;;;;;;;;;;;;;7.91;75.38574;99286.63;;;;
2020/11/14 17:19:21;;;;;;;;;;;;;;;7.86;75.46582;99285.84;;;;
2020/11/14 17:20:21;;;;;;;;;;;;;;;7.83;75.23438;99292.02;;;;
2020/11/14 17:20:59;;;;;;;55.3;40.2;;;;;;;;;;;;;
2020/11/14 17:21:21;;;;;;;;;;;;;;;7.82;75.70996;99289.89;;;;
2020/11/14 17:22:21;;;;;;;;;;;;;;;7.8;75.75391;99293.64;;;;
2020/11/14 17:23:21;;;;;;;;;;;;;;;7.79;75.92871;99289.63;;;;
2020/11/14 17:24:21;;;;;;;;;;;;;;;7.78;76.19727;99291.5;;;;
2020/11/14 17:25:21;;;;;;;;;;;;;;;7.76;76.12891;99300.62;;;;
2020/11/14 17:26:21;;;;;;;;;;;;;;;7.74;76.24707;99293.92;;;;
2020/11/14 17:27:21;;;;;;;;;;;;;;;7.68;75.9541;99299.55;;;;
2020/11/14 17:28:21;;;;;;;;;;;;;;;7.65;75.25879;99289.91;;;;
2020/11/14 17:29:21;;;;;;;;;;;;;;;7.61;75.67773;99297.69;;;;
2020/11/14 17:30:21;;;;;;;;;;;;;;;7.56;75.33691;99300.11;;;;
2020/11/14 17:30:57;;;;;;;41.8;33.5;;;;;;;;;;;;;
2020/11/14 17:31:21;;;;;;;;;;;;;;;7.5;75.32715;99292.09;;;;
2020/11/14 17:32:21;;;;;;;;;;;;;;;7.43;75.64258;99296.63;;;;
2020/11/14 17:33:21;;;;;;;;;;;;;;;7.37;75.9541;99296.1;;;;
2020/11/14 17:34:21;;;;;;;;;;;;;;;7.3;75.16016;99301.74;;;;
2020/11/14 17:35:21;;;;;;;;;;;;;;;7.24;75.61816;99293.97;;;;
2020/11/14 17:36:21;;;;;;;;;;;;;;;7.2;75.86523;99283.52;;;;
2020/11/14 17:37:21;;;;;;;;;;;;;;;7.14;75.82324;99290.48;;;;
2020/11/14 17:38:21;;;;;;;;;;;;;;;7.08;75.8252;99286.2;;;;
2020/11/14 17:39:21;;;;;;;;;;;;;;;7.04;77.03613;99286.19;;;;
2020/11/14 17:40:21;;;;;;;;;;;;;;;7.04;77.55371;99287.81;;;;
2020/11/14 17:40:55;;;;;;;69.1;50.1;;;;;;;;;;;;;
2020/11/14 17:41:21;;;;;;;;;;;;;;;7.02;77.83398;99285.13;;;;
2020/11/14 17:42:21;;;;;;;;;;;;;;;6.98;78.34473;99292.63;;;;
2020/11/14 17:43:21;;;;;;;;;;;;;;;6.95;78.28125;99288.86;;;;
2020/11/14 17:44:21;;;;;;;;;;;;;;;6.92;78.54492;99289.39;;;;
2020/11/14 17:45:21;;;;;;;;;;;;;;;6.89;78.05762;99289.13;;;;
2020/11/14 17:46:21;;;;;;;;;;;;;;;6.89;78.15332;99286.98;;;;
2020/11/14 17:47:21;;;;;;;;;;;;;;;6.89;78.93555;99281.63;;;;
2020/11/14 17:48:21;;;;;;;;;;;;;;;6.88;79.14844;99286.98;;;;
2020/11/14 17:49:21;;;;;;;;;;;;;;;6.86;79.28125;99286.17;;;;
2020/11/14 17:50:21;;;;;;;;;;;;;;;6.84;79.16602;99288.33;;;;
2020/11/14 17:50:53;;;;;;;99.1;78.6;;;;;;;;;;;;;
2020/11/14 17:51:21;;;;;;;;;;;;;;;6.82;78.8252;99286.95;;;;
2020/11/14 17:52:21;;;;;;;;;;;;;;;6.78;78.39941;99287.24;;;;
2020/11/14 17:53:21;;;;;;;;;;;;;;;6.75;78.21191;99286.16;;;;
2020/11/14 17:54:21;;;;;;;;;;;;;;;6.72;78.33984;99292.05;;;;
2020/11/14 17:55:21;;;;;;;;;;;;;;;6.7;78.83789;99287.23;;;;
2020/11/14 17:56:21;;;;;;;;;;;;;;;6.71;79.08984;99288.57;;;;
2020/11/14 17:57:21;;;;;;;;;;;;;;;6.69;79.44922;99284.8;;;;
2020/11/14 17:58:21;;;;;;;;;;;;;;;6.7;79.66016;99287.76;;;;
2020/11/14 17:59:21;;;;;;;;;;;;;;;6.71;79.74023;99294.7;;;;
2020/11/14 18:00:21;;;;;;;;;;;;;;;6.71;79.90723;99292.84;;;;
2020/11/14 18:00:51;;;;;;;73.7;65.3;;;;;;;;;;;;;
2020/11/14 18:01:21;;;;;;;;;;;;;;;6.71;80.04297;99296.32;;;;
2020/11/14 18:02:21;;;;;;;;;;;;;;;6.69;79.74023;99292.84;;;;
2020/11/14 18:03:21;;;;;;;;;;;;;;;6.68;79.62598;99295.8;;;;
2020/11/14 18:04:21;;;;;;;;;;;;;;;6.67;80.07129;99291.5;;;;
2020/11/14 18:05:21;;;;;;;;;;;;;;;6.68;80.12402;99287.2;;;;
2020/11/14 18:06:21;;;;;;;;;;;;;;;6.66;80.13672;99293.37;;;;
2020/11/14 18:07:21;;;;;;;;;;;;;;;6.65;80.1582;99296.33;;;;
2020/11/14 18:08:21;;;;;;;;;;;;;;;6.63;79.93066;99289.35;;;;
2020/11/14 18:09:21;;;;;;;;;;;;;;;6.6;79.71582;99294.15;;;;
2020/11/14 18:10:35;;;;;;;;;;;;;;;6.58;79.95605;99251.52;;;;
2020/11/14 18:10:49;;;;;;;68.9;55.8;;;;;;;;;;;;;
2020/11/14 18:11:35;;;;;;;;;;;;;;;6.59;80.63379;99284.25;;;;
2020/11/14 18:12:35;;;;;;;;;;;;;;;6.59;80.9375;99293.88;;;;
2020/11/14 18:13:35;;;;;;;;;;;;;;;6.59;81.20508;99293.88;;;;
2020/11/14 18:14:35;;;;;;;;;;;;;;;6.61;80.89258;99291.2;;;;
2020/11/14 18:15:35;;;;;;;;;;;;;;;6.6;80.44727;99290.13;;;;
2020/11/14 18:16:35;;;;;;;;;;;;;;;6.62;80.77148;99289.33;;;;
2020/11/14 18:17:35;;;;;;;;;;;;;;;6.67;81.17676;99295.24;;;;
2020/11/14 18:18:35;;;;;;;;;;;;;;;6.67;80.87207;99291.75;;;;
2020/11/14 18:19:35;;;;;;;;;;;;;;;6.69;80.87207;99289.07;;;;
2020/11/14 18:20:35;;;;;;;;;;;;;;;6.72;81.20117;99279.72;;;;
2020/11/14 18:20:47;;;;;;;65.3;53.2;;;;;;;;;;;;;
2020/11/14 18:21:37;;;;;;;;;;;;;;;6.73;81.42969;99287.23;;;;
2020/11/14 18:22:35;;;;;;;;;;;;;;;6.77;81.39746;99278.13;;;;
2020/11/14 18:23:35;;;;;;;;;;;;;;;6.78;81.29492;99283.77;;;;
2020/11/14 18:24:35;;;;;;;;;;;;;;;6.8;81.35254;99280.8;;;;
2020/11/14 18:25:35;;;;;;;;;;;;;;;6.82;81.44434;99281.36;;;;
2020/11/14 18:26:35;;;;;;;;;;;;;;;6.84;81.40527;99281.88;;;;
2020/11/14 18:27:35;;;;;;;;;;;;;;;6.86;81.22852;99278.92;;;;
2020/11/14 18:28:35;;;;;;;;;;;;;;;6.87;81.08789;99282.97;;;;
2020/11/14 18:29:35;;;;;;;;;;;;;;;6.86;80.74316;99289.13;;;;
2020/11/14 18:30:35;;;;;;;;;;;;;;;6.85;80.66211;99284.84;;;;
2020/11/14 18:30:46;;;;;;;66.8;49.9;;;;;;;;;;;;;
2020/11/14 18:31:35;;;;;;;;;;;;;;;6.85;80.72852;99281.34;;;;
2020/11/14 18:32:35;;;;;;;;;;;;;;;6.84;80.61719;99285.89;;;;
2020/11/14 18:33:35;;;;;;;;;;;;;;;6.84;80.81445;99289.64;;;;
2020/11/14 18:34:35;;;;;;;;;;;;;;;6.83;80.99512;99282.41;;;;
2020/11/14 18:35:35;;;;;;;;;;;;;;;6.85;81.07031;99283.5;;;;
2020/11/14 18:36:35;;;;;;;;;;;;;;;6.84;80.97461;99291.25;;;;
2020/11/14 18:37:35;;;;;;;;;;;;;;;6.84;80.96191;99287.77;;;;
2020/11/14 18:38:35;;;;;;;;;;;;;;;6.83;81.03809;99284.28;;;;
2020/11/14 18:39:35;;;;;;;;;;;;;;;6.83;80.84668;99280.82;;;;
2020/11/14 18:40:35;;;;;;;;;;;;;;;6.81;80.38867;99288.05;;;;
2020/11/14 18:40:44;;;;;;;57.3;51.1;;;;;;;;;;;;;
2020/11/14 18:41:35;;;;;;;;;;;;;;;6.78;80.44141;99290.17;;;;
2020/11/14 18:42:35;;;;;;;;;;;;;;;6.77;80.70215;99279.98;;;;
2020/11/14 18:43:35;;;;;;;;;;;;;;;6.77;81.10449;99279.19;;;;
2020/11/14 18:44:35;;;;;;;;;;;;;;;6.76;81.16016;99278.41;;;;
2020/11/14 18:45:35;;;;;;;;;;;;;;;6.76;81.30371;99274.91;;;;
2020/11/14 18:46:35;;;;;;;;;;;;;;;6.76;81.25781;99282.14;;;;
2020/11/14 18:47:35;;;;;;;;;;;;;;;6.77;81.31348;99276.78;;;;
2020/11/14 18:48:35;;;;;;;;;;;;;;;6.79;81.95313;99284.54;;;;
2020/11/14 18:49:35;;;;;;;;;;;;;;;6.77;81.15234;99282.42;;;;
2020/11/14 18:50:35;;;;;;;;;;;;;;;6.75;80.87012;99279.19;;;;
2020/11/14 18:50:42;;;;;;;62.4;55.7;;;;;;;;;;;;;
2020/11/14 18:51:37;;;;;;;;;;;;;;;6.7;80.41797;99277.84;;;;
2020/11/14 18:52:35;;;;;;;;;;;;;;;6.67;80.85645;99270.59;;;;
2020/11/14 18:53:35;;;;;;;;;;;;;;;6.65;81.4082;99276.48;;;;
2020/11/14 18:54:35;;;;;;;;;;;;;;;6.66;81.71777;99275.96;;;;
2020/11/14 18:55:35;;;;;;;;;;;;;;;6.67;81.67676;99282.94;;;;
2020/11/14 18:56:35;;;;;;;;;;;;;;;6.67;81.59863;99281.84;;;;
2020/11/14 18:57:38;;;;;;;;;;;;;;;6.65;80.91699;99281.84;;;;
2020/11/14 18:58:35;;;;;;;;;;;;;;;6.63;80.9248;99284;;;;
2020/11/14 18:59:35;;;;;;;;;;;;;;;6.59;80.94434;99272.73;;;;
2020/11/14 19:00:35;;;;;;;;;;;;;;;6.56;80.63379;99277.03;;;;
2020/11/14 19:00:40;;;;;;;64.6;50.8;;;;;;;;;;;;;
2020/11/14 19:01:37;;;;;;;;;;;;;;;6.48;81.37695;99277.53;;;;
2020/11/14 19:02:35;;;;;;;;;;;;;;;6.47;81.88672;99276.19;;;;
2020/11/14 19:03:53;;;;;;;;;;;;;;;6.48;81.78223;99233.53;;;;
2020/11/14 19:04:54;;;;;;;;;;;;;;;6.51;82.08789;99272.7;;;;
2020/11/14 19:05:53;;;;;;;;;;;;;;;6.53;82.21484;99269.5;;;;
2020/11/14 19:06:53;;;;;;;;;;;;;;;6.57;82.08691;99273.52;;;;
2020/11/14 19:07:53;;;;;;;;;;;;;;;6.62;82.05078;99277.28;;;;
2020/11/14 19:08:53;;;;;;;;;;;;;;;6.65;81.95703;99275.69;;;;
2020/11/14 19:09:53;;;;;;;;;;;;;;;6.7;81.84961;99277.83;;;;
2020/11/14 19:10:40;;;;;;;51.6;45.2;;;;;;;;;;;;;
2020/11/14 19:10:53;;;;;;;;;;;;;;;6.76;81.77051;99277.85;;;;
2020/11/14 19:11:53;;;;;;;;;;;;;;;6.81;81.7168;99272.23;;;;
2020/11/14 19:12:53;;;;;;;;;;;;;;;6.84;81.2793;99284.81;;;;
2020/11/14 19:13:53;;;;;;;;;;;;;;;6.87;81.0625;99279.73;;;;
2020/11/14 19:14:53;;;;;;;;;;;;;;;6.87;80.81055;99284.55;;;;
2020/11/14 19:15:53;;;;;;;;;;;;;;;6.87;80.67578;99284.55;;;;
2020/11/14 19:16:53;;;;;;;;;;;;;;;6.86;80.47461;99284.55;;;;
2020/11/14 19:17:53;;;;;;;;;;;;;;;6.85;80.22754;99288.33;;;;
2020/11/14 19:18:53;;;;;;;;;;;;;;;6.84;80.44922;99286.7;;;;
2020/11/14 19:19:53;;;;;;;;;;;;;;;6.83;80.12207;99289.64;;;;
2020/11/14 19:20:38;;;;;;;65;48.1;;;;;;;;;;;;;
2020/11/14 19:20:53;;;;;;;;;;;;;;;6.81;80.17578;99283.5;;;;
2020/11/14 19:21:53;;;;;;;;;;;;;;;6.79;79.72559;99285.63;;;;
2020/11/14 19:22:53;;;;;;;;;;;;;;;6.75;79.83398;99298.49;;;;
2020/11/14 19:23:53;;;;;;;;;;;;;;;6.71;79.24512;99288.56;;;;
2020/11/14 19:24:57;;;;;;;;;;;;;;;6.72;80.03027;99282.12;;;;
2020/11/14 19:25:53;;;;;;;;;;;;;;;6.75;80.65918;99289.91;;;;
2020/11/14 19:26:53;;;;;;;;;;;;;;;6.75;80.94336;99292.05;;;;
2020/11/14 19:27:53;;;;;;;;;;;;;;;6.77;80.87598;99286.69;;;;
2020/11/14 19:28:53;;;;;;;;;;;;;;;6.75;80.61328;99291.8;;;;
2020/11/14 19:29:53;;;;;;;;;;;;;;;6.72;80.2959;99289.38;;;;
2020/11/14 19:30:37;;;;;;;51.5;42.6;;;;;;;;;;;;;
2020/11/14 19:30:53;;;;;;;;;;;;;;;6.7;80.16797;99286.42;;;;
2020/11/14 19:31:53;;;;;;;;;;;;;;;6.66;79.81641;99288.57;;;;
2020/11/14 19:32:53;;;;;;;;;;;;;;;6.62;79.65527;99285.61;;;;
2020/11/14 19:33:53;;;;;;;;;;;;;;;6.58;79.36621;99289.08;;;;
2020/11/14 19:34:53;;;;;;;;;;;;;;;6.53;79.20313;99283.44;;;;
2020/11/14 19:35:53;;;;;;;;;;;;;;;6.5;79.18359;99291.45;;;;
2020/11/14 19:36:53;;;;;;;;;;;;;;;6.47;79.94727;99281.27;;;;
2020/11/14 19:37:53;;;;;;;;;;;;;;;6.46;80.52344;99287.16;;;;
2020/11/14 19:38:53;;;;;;;;;;;;;;;6.44;80.44336;99288.22;;;;
2020/11/14 19:39:53;;;;;;;;;;;;;;;6.41;80.2373;99285;;;;
2020/11/14 19:40:35;;;;;;;49.9;41.3;;;;;;;;;;;;;
2020/11/14 19:40:55;;;;;;;;;;;;;;;6.35;80.36621;99283.67;;;;
2020/11/14 19:41:55;;;;;;;;;;;;;;;6.36;80.22266;99275.89;;;;
2020/11/14 19:42:53;;;;;;;;;;;;;;;6.36;80.92578;99293.53;;;;
2020/11/14 19:43:53;;;;;;;;;;;;;;;6.38;81.27148;99290.86;;;;
2020/11/14 19:44:54;;;;;;;;;;;;;;;6.41;81.77832;99286.88;;;;
2020/11/14 19:45:53;;;;;;;;;;;;;;;6.42;81.65039;99283.67;;;;
2020/11/14 19:46:53;;;;;;;;;;;;;;;6.43;81.36328;99287.94;;;;
2020/11/14 19:47:54;;;;;;;;;;;;;;;6.46;81.64355;99284.2;;;;
2020/11/14 19:48:53;;;;;;;;;;;;;;;6.49;81.69336;99274.83;;;;
2020/11/14 19:49:53;;;;;;;;;;;;;;;6.52;81.6875;99282.36;;;;
2020/11/14 19:50:33;;;;;;;60.2;42.9;;;;;;;;;;;;;
2020/11/14 19:50:53;;;;;;;;;;;;;;;6.55;81.67188;99282.64;;;;
2020/11/14 19:51:54;;;;;;;;;;;;;;;6.57;81.78809;99275.94;;;;
2020/11/14 19:52:53;;;;;;;;;;;;;;;6.59;81.59277;99290.66;;;;
2020/11/14 19:54:27;;;;;;;;;;;;;;;6.61;81.62793;99287.73;;;;
2020/11/14 19:55:27;;;;;;;;;;;;;;;6.62;81.62207;99290.95;;;;
2020/11/14 19:56:28;;;;;;;;;;;;;;;6.63;81.48926;99295.24;;;;
2020/11/14 19:57:27;;;;;;;;;;;;;;;6.62;81.40039;99293.38;;;;
2020/11/14 19:58:27;;;;;;;;;;;;;;;6.6;80.96289;99294.43;;;;
2020/11/14 19:59:27;;;;;;;;;;;;;;;6.57;80.74902;99289.33;;;;
2020/11/14 20:00:28;;;;;;;;;;;;;;;6.55;80.66406;99295.22;;;;
2020/11/14 20:00:31;;;;;;;59.1;47.1;;;;;;;;;;;;;
2020/11/14 20:01:27;;;;;;;;;;;;;;;6.52;80.67383;99292.81;;;;
2020/11/14 20:02:27;;;;;;;;;;;;;;;6.5;80.57813;99293.34;;;;
2020/11/14 20:03:27;;;;;;;;;;;;;;;6.46;80.11523;99286.63;;;;
2020/11/14 20:04:27;;;;;;;;;;;;;;;6.44;80.41016;99293.56;;;;
2020/11/14 20:05:27;;;;;;;;;;;;;;;6.43;80.59668;99299.2;;;;
2020/11/14 20:06:27;;;;;;;;;;;;;;;6.42;80.50586;99289.55;;;;
2020/11/14 20:07:27;;;;;;;;;;;;;;;6.38;80.55762;99292.51;;;;
2020/11/14 20:08:27;;;;;;;;;;;;;;;6.32;80.74121;99302.13;;;;
2020/11/14 20:09:27;;;;;;;;;;;;;;;6.22;80.20605;99301.28;;;;
2020/11/14 20:10:27;;;;;;;;;;;;;;;6.14;79.70703;99303.11;;;;
2020/11/14 20:10:29;;;;;;;71.2;51.4;;;;;;;;;;;;;
2020/11/14 20:11:27;;;;;;;;;;;;;;;6.12;79.9043;99295.61;;;;
2020/11/14 20:12:27;;;;;;;;;;;;;;;6.08;79.4541;99303.88;;;;
2020/11/14 20:13:27;;;;;;;;;;;;;;;6.04;79.0127;99300.92;;;;
2020/11/14 20:14:27;;;;;;;;;;;;;;;5.99;79.04883;99304.37;;;;
2020/11/14 20:15:27;;;;;;;;;;;;;;;5.93;79.21973;99302.5;;;;
2020/11/14 20:16:27;;;;;;;;;;;;;;;5.91;79.95508;99295.52;;;;
2020/11/14 20:17:27;;;;;;;;;;;;;;;5.87;81.47754;99302.98;;;;
2020/11/14 20:18:27;;;;;;;;;;;;;;;5.87;82.56348;99299.2;;;;
2020/11/14 20:19:27;;;;;;;;;;;;;;;5.86;82.94141;99296.53;;;;
2020/11/14 20:20:27;;;;;;;;;;;;;;;5.84;81.9375;99300.29;;;;
2020/11/14 20:20:29;;;;;;;75.1;56.5;;;;;;;;;;;;;
2020/11/14 20:21:27;;;;;;;;;;;;;;;5.81;81.48633;99293.53;;;;
2020/11/14 20:22:27;;;;;;;;;;;;;;;5.79;81.57031;99289.52;;;;
2020/11/14 20:23:27;;;;;;;;;;;;;;;5.78;82.24707;99302.36;;;;
2020/11/14 20:24:27;;;;;;;;;;;;;;;5.75;82.07813;99298.06;;;;
2020/11/14 20:25:27;;;;;;;;;;;;;;;5.71;81.23535;99303.13;;;;
2020/11/14 20:26:27;;;;;;;;;;;;;;;5.68;81.07324;99305.5;;;;
2020/11/14 20:27:30;;;;;;;;;;;;;;;5.65;80.91211;99311.38;;;;
2020/11/14 20:28:27;;;;;;;;;;;;;;;5.61;79.71289;99306.55;;;;
2020/11/14 20:29:27;;;;;;;;;;;;;;;5.57;79.76074;99304.64;;;;
2020/11/14 20:30:26;;;;;;;65.3;52.9;;;;;;;;;;;;;
2020/11/14 20:30:29;;;;;;;;;;;;;;;5.55;79.65332;99296.32;;;;
2020/11/14 20:31:27;;;;;;;;;;;;;;;5.52;79.65039;99298.45;;;;
2020/11/14 20:32:34;;;;;;;;;;;;;;;5.5;79.31152;99299.76;;;;
2020/11/14 20:33:27;;;;;;;;;;;;;;;5.48;78.45898;99290.39;;;;
2020/11/14 20:40:24;;;;;;;61.6;52.2;;;;;;;5.29;81.72852;99289.44;;;;
2020/11/14 20:50:22;;;;;;;71.7;51.5;;;;;;;5.11;79.94629;99297.02;;;;
2020/11/14 21:00:20;;;;;;;88;65.3;;;;;;;5.04;83.75;99303.39;;;;
2020/11/14 21:10:18;;;;;;;87.4;68.8;;;;;;;5.04;84.92773;99292.7;;;;
2020/11/14 21:20:17;;;;;;;89.9;63.4;;;;;;;4.96;85.23438;99247.75;;;;
2020/11/14 21:30:15;;;;;;;69.8;54.4;;;;;;;5.01;84.4668;99287.88;;;;
2020/11/14 21:40:13;;;;;;;53;47;;;;;;;5.06;83.54199;99279.11;;;;
2020/11/14 21:50:12;;;;;;;68.4;51.7;;;;;;;4.93;84.85156;99277.64;;;;
2020/11/14 22:00:09;;;;;;;73.2;51.1;;;;;;;4.88;84.31836;99268.79;;;;
2020/11/14 22:10:07;;;;;;;65;55.2;;;;;;;4.94;85.86328;99271.25;;;;
2020/11/14 22:20:05;;;;;;;66.3;53.6;;;;;;;4.76;84.96191;99271.61;;;;
2020/11/14 22:30:04;;;;;;;54.7;45.9;;;;;;;4.62;85.91113;99267.73;;;;
2020/11/14 22:40:01;;;;;;;65.2;50.9;;;;;;;4.58;86.71191;99268.51;;;;
2020/11/14 22:49:59;;;;;;;56.1;48.1;;;;;;;4.48;83.85156;99277.19;;;;
2020/11/14 22:59:57;;;;;;;58.9;47.8;;;;;;;4.39;86.64063;99278.7;;;;
2020/11/14 23:09:55;;;;;;;59.4;52.9;;;;;;;4.31;87.32324;99284.47;;;;
2020/11/14 23:19:53;;;;;;;74.8;61.3;;;;;;;4.32;88.88965;99273.56;;;;
2020/11/14 23:29:51;;;;;;;97.8;75.9;;;;;;;4.54;89.58789;99277.02;;;;
2020/11/14 23:39:49;;;;;;;88.1;69.6;;;;;;;4.67;88.22754;99269.66;;;;
2020/11/14 23:49:47;;;;;;;73.6;63;;;;;;;4.92;88.04688;99278.72;;;;
2020/11/14 23:59:45;;;;;;;69.3;60.4;;;;;;;5.28;87.90723;99265.63;;;;
